Time;durP1;ratioP1;P1;durP2;ratioP2;P2;SDS_P1;SDS_P2;PMS_P1;PMS_P2;Temp;Humidity;BMP_temperature;BMP_pressure;BME280_temperature;BME280_humidity;BME280_pressure;Samples;Min_cycle;Max_cycle;Signal;HPM_P1;HPM_P2
2024/01/29 00:02:20;;;;;;;24.40;23.03;;;;;;;3.55;100.00;102432.63;4950504;28;20882;-43
2024/01/29 00:04:48;;;;;;;24.23;22.90;;;;;;;3.56;100.00;102421.13;4950066;28;20522;-43
2024/01/29 00:07:15;;;;;;;24.10;23.00;;;;;;;3.57;100.00;102425.44;4950240;28;20463;-42
2024/01/29 00:09:45;;;;;;;23.93;22.63;;;;;;;3.60;100.00;102432.28;4950020;28;21232;-41
2024/01/29 00:12:13;;;;;;;23.90;22.70;;;;;;;3.59;100.00;102422.69;4949965;28;20440;-41
2024/01/29 00:14:41;;;;;;;24.77;23.40;;;;;;;3.59;100.00;102426.16;4949632;28;20460;-42
2024/01/29 00:17:09;;;;;;;26.00;24.27;;;;;;;3.59;100.00;102430.59;4949918;28;21031;-43
2024/01/29 00:19:37;;;;;;;24.47;23.37;;;;;;;3.61;100.00;102420.81;4952331;28;20522;-42
2024/01/29 00:22:05;;;;;;;24.43;23.23;;;;;;;3.60;100.00;102425.22;4953859;28;20479;-47
2024/01/29 00:24:33;;;;;;;24.33;23.13;;;;;;;3.62;100.00;102423.31;4953796;28;20467;-45
2024/01/29 00:27:02;;;;;;;24.80;23.50;;;;;;;3.65;100.00;102409.91;4953925;28;20444;-42
2024/01/29 00:29:30;;;;;;;23.57;22.37;;;;;;;3.69;100.00;102414.00;4953593;28;20502;-42
2024/01/29 00:31:58;;;;;;;23.60;22.40;;;;;;;3.71;100.00;102406.81;4953219;28;20461;-43
2024/01/29 00:34:26;;;;;;;22.70;21.60;;;;;;;3.74;100.00;102400.47;4953715;28;20459;-42
2024/01/29 00:36:54;;;;;;;23.73;22.63;;;;;;;3.78;100.00;102399.31;4953540;28;20440;-42
2024/01/29 00:39:22;;;;;;;25.10;23.80;;;;;;;3.79;100.00;102399.16;4952993;28;20554;-43
2024/01/29 00:41:49;;;;;;;24.40;23.30;;;;;;;3.80;100.00;102392.94;4953256;28;20498;-42
2024/01/29 00:44:19;;;;;;;25.00;23.77;;;;;;;3.84;100.00;102398.84;4953249;28;20463;-41
2024/01/29 00:46:47;;;;;;;23.83;22.80;;;;;;;3.85;100.00;102406.63;4953462;28;20534;-41
2024/01/29 00:49:15;;;;;;;23.70;22.57;;;;;;;3.89;100.00;102410.75;4952662;28;20460;-42
2024/01/29 00:51:43;;;;;;;24.33;23.13;;;;;;;3.90;100.00;102414.22;4953550;28;20452;-43
2024/01/29 00:54:11;;;;;;;22.93;21.87;;;;;;;3.95;100.00;102427.06;4952744;28;20459;-42
2024/01/29 00:56:38;;;;;;;22.93;22.00;;;;;;;3.95;100.00;102422.66;4953195;28;20530;-43
2024/01/29 00:59:06;;;;;;;23.33;22.23;;;;;;;3.96;100.00;102424.34;4952907;28;20494;-44
2024/01/29 01:01:35;;;;;;;23.63;22.40;;;;;;;3.98;100.00;102430.34;4953218;28;20444;-41
2024/01/29 01:04:04;;;;;;;23.30;22.10;;;;;;;3.98;100.00;102440.06;4953099;28;20554;-41
2024/01/29 01:06:32;;;;;;;23.60;22.27;;;;;;;3.98;100.00;102437.41;4952764;28;20450;-42
2024/01/29 01:09:00;;;;;;;22.33;21.43;;;;;;;3.97;100.00;102430.47;4952445;28;20502;-42
2024/01/29 01:11:27;;;;;;;22.97;21.73;;;;;;;3.95;100.00;102429.72;4953327;28;20530;-41
2024/01/29 01:13:55;;;;;;;23.43;22.23;;;;;;;3.94;100.00;102434.19;4951912;28;20923;-44
2024/01/29 01:16:23;;;;;;;23.23;22.23;;;;;;;3.90;100.00;102441.47;4953204;28;20450;-42
2024/01/29 01:18:52;;;;;;;23.40;22.40;;;;;;;3.88;100.00;102440.72;4952447;28;20475;-41
2024/01/29 01:21:20;;;;;;;24.03;22.43;;;;;;;3.86;100.00;102444.44;4952354;28;20552;-43
2024/01/29 01:23:48;;;;;;;23.93;22.57;;;;;;;3.85;100.00;102454.13;4952675;28;20451;-42
2024/01/29 01:26:15;;;;;;;24.10;23.00;;;;;;;3.82;100.00;102443.00;4952660;28;20440;-44
2024/01/29 01:28:43;;;;;;;24.00;22.80;;;;;;;3.79;100.00;102444.03;4952351;28;20641;-43
2024/01/29 01:31:11;;;;;;;23.53;22.33;;;;;;;3.77;100.00;102445.09;4951588;28;21226;-44
2024/01/29 01:33:39;;;;;;;24.43;23.13;;;;;;;3.71;100.00;102435.84;4952315;28;20443;-41
2024/01/29 01:36:08;;;;;;;24.10;22.90;;;;;;;3.68;100.00;102440.50;4952764;28;20444;-41
2024/01/29 01:38:36;;;;;;;23.80;22.80;;;;;;;3.66;100.00;102429.22;4952416;28;20497;-45
2024/01/29 01:41:04;;;;;;;24.83;23.60;;;;;;;3.62;100.00;102430.38;4952403;28;20440;-43
2024/01/29 01:43:32;;;;;;;24.87;23.33;;;;;;;3.58;100.00;102432.41;4952654;28;20440;-42
2024/01/29 01:46:17;;;;;;;23.97;22.87;;;;;;;3.57;100.00;102441.28;4952503;28;20559;-43
2024/01/29 01:48:45;;;;;;;24.03;22.80;;;;;;;3.53;100.00;102437.16;4952107;28;20435;-43
2024/01/29 01:51:15;;;;;;;25.20;23.80;;;;;;;3.52;100.00;102442.56;4952599;28;20522;-46
2024/01/29 01:53:43;;;;;;;25.47;24.00;;;;;;;3.48;100.00;102436.66;4951632;28;20450;-42
2024/01/29 01:56:10;;;;;;;23.80;22.70;;;;;;;3.46;100.00;102445.63;4952064;28;20450;-42
2024/01/29 01:58:40;;;;;;;22.37;21.37;;;;;;;3.43;100.00;102454.59;4951435;28;20510;-44
2024/01/29 02:01:08;;;;;;;22.23;21.00;;;;;;;3.41;100.00;102448.56;4951944;28;20440;-44
2024/01/29 02:03:36;;;;;;;23.83;22.07;;;;;;;3.40;100.00;102448.69;4951938;28;20531;-44
2024/01/29 02:06:05;;;;;;;23.17;21.97;;;;;;;3.36;100.00;102440.16;4951722;28;20460;-42
2024/01/29 02:08:34;;;;;;;23.93;22.47;;;;;;;3.32;100.00;102447.44;4952045;28;20791;-43
2024/01/29 02:11:02;;;;;;;22.83;21.60;;;;;;;3.29;100.00;102450.28;4951750;28;20448;-43
2024/01/29 02:13:30;;;;;;;22.40;21.20;;;;;;;3.26;100.00;102449.66;4951739;28;20478;-43
2024/01/29 02:15:58;;;;;;;22.60;21.30;;;;;;;3.23;100.00;102450.72;4951936;28;20475;-43
2024/01/29 02:18:26;;;;;;;23.10;22.10;;;;;;;3.20;100.00;102452.72;4951689;28;20486;-44
2024/01/29 02:20:54;;;;;;;21.83;20.93;;;;;;;3.18;100.00;102444.09;4951241;28;21148;-41
2024/01/29 02:23:23;;;;;;;23.87;22.37;;;;;;;3.13;100.00;102449.69;4951353;28;20928;-41
2024/01/29 02:25:51;;;;;;;22.70;21.80;;;;;;;3.07;100.00;102444.84;4951166;28;20541;-43
2024/01/29 02:28:19;;;;;;;23.27;22.07;;;;;;;3.02;100.00;102446.94;4951520;28;20447;-41
2024/01/29 02:30:47;;;;;;;21.90;21.00;;;;;;;2.95;100.00;102442.22;4951138;28;20558;-41
2024/01/29 02:33:15;;;;;;;24.13;23.03;;;;;;;2.88;100.00;102443.59;4950896;28;20444;-42
2024/01/29 02:35:45;;;;;;;25.77;24.50;;;;;;;2.81;100.00;102442.34;4951198;28;20467;-43
2024/01/29 02:38:13;;;;;;;25.37;24.37;;;;;;;2.75;100.00;102438.31;4951376;28;20511;-44
2024/01/29 02:40:42;;;;;;;27.00;25.80;;;;;;;2.71;100.00;102434.22;4950746;28;20499;-43
2024/01/29 02:43:11;;;;;;;24.33;23.23;;;;;;;2.65;100.00;102440.75;4950065;28;20467;-41
2024/01/29 02:45:38;;;;;;;24.77;23.77;;;;;;;2.60;100.00;102441.97;4951079;28;20464;-45
2024/01/29 02:48:07;;;;;;;25.90;24.60;;;;;;;2.54;100.00;102445.88;4951363;28;20538;-41
2024/01/29 02:50:35;;;;;;;25.30;24.20;;;;;;;2.50;100.00;102440.94;4950634;28;20494;-43
2024/01/29 02:53:03;;;;;;;26.90;25.53;;;;;;;2.44;100.00;102439.56;4950336;28;20451;-44
2024/01/29 02:55:30;;;;;;;27.00;25.70;;;;;;;2.41;100.00;102433.66;4950988;28;20460;-43
2024/01/29 02:58:00;;;;;;;24.60;23.60;;;;;;;2.36;100.00;102438.38;4951246;28;20444;-43
2024/01/29 03:00:28;;;;;;;25.10;24.00;;;;;;;2.32;100.00;102442.16;4950293;28;20498;-43
2024/01/29 03:02:57;;;;;;;26.97;25.63;;;;;;;2.28;100.00;102433.63;4950930;28;20440;-42
2024/01/29 03:05:25;;;;;;;26.10;25.00;;;;;;;2.27;100.00;102437.19;4950654;28;20482;-41
2024/01/29 03:07:52;;;;;;;26.70;25.50;;;;;;;2.24;100.00;102429.50;4950839;28;20467;-44
2024/01/29 03:10:21;;;;;;;25.20;24.00;;;;;;;2.21;100.00;102432.34;4950252;28;20464;-41
2024/01/29 03:12:48;;;;;;;26.27;25.13;;;;;;;2.19;100.00;102431.59;4950840;28;20446;-45
2024/01/29 03:15:18;;;;;;;25.17;23.97;;;;;;;2.17;100.00;102429.06;4950817;28;20460;-41
2024/01/29 03:17:46;;;;;;;27.67;26.40;;;;;;;2.17;100.00;102420.34;4950937;28;20447;-41
2024/01/29 03:20:14;;;;;;;27.73;26.33;;;;;;;2.15;100.00;102416.97;4949814;28;20475;-43
2024/01/29 03:22:42;;;;;;;28.40;26.60;;;;;;;2.14;100.00;102416.13;4950539;28;20539;-41
2024/01/29 03:25:10;;;;;;;27.20;25.90;;;;;;;2.14;100.00;102423.16;4950110;28;20510;-45
2024/01/29 03:27:38;;;;;;;28.23;27.03;;;;;;;2.09;100.00;102418.19;4950396;28;20443;-41
2024/01/29 03:30:07;;;;;;;27.33;25.93;;;;;;;2.07;100.00;102409.56;4950055;28;20463;-43
2024/01/29 03:32:36;;;;;;;28.60;27.30;;;;;;;2.05;100.00;102416.72;4950200;28;20450;-44
2024/01/29 03:35:04;;;;;;;28.80;27.50;;;;;;;2.04;100.00;102417.66;4950133;28;20456;-42
2024/01/29 03:37:32;;;;;;;27.03;25.83;;;;;;;2.02;100.00;102405.56;4950730;28;20502;-43
2024/01/29 03:40:00;;;;;;;28.40;27.10;;;;;;;1.96;100.00;102404.19;4949891;28;20502;-46
2024/01/29 03:42:28;;;;;;;27.47;26.33;;;;;;;1.94;100.00;102402.59;4949905;28;20518;-43
2024/01/29 03:44:55;;;;;;;27.93;26.73;;;;;;;1.92;100.00;102400.06;4950066;28;20464;-41
2024/01/29 03:47:23;;;;;;;28.43;27.23;;;;;;;1.88;100.00;102406.44;4950234;28;20514;-44
2024/01/29 03:49:52;;;;;;;27.17;25.90;;;;;;;1.86;100.00;102405.72;4949845;28;20478;-44
2024/01/29 03:52:20;;;;;;;28.67;27.27;;;;;;;1.84;100.00;102407.59;4950335;28;20443;-42
2024/01/29 03:54:48;;;;;;;28.50;27.10;;;;;;;1.81;100.00;102409.59;4951683;28;20463;-44
2024/01/29 03:57:16;;;;;;;27.93;26.77;;;;;;;1.78;100.00;102405.38;4956433;28;20440;-42
2024/01/29 03:59:43;;;;;;;29.03;27.77;;;;;;;1.77;100.00;102408.09;4955776;28;20481;-42
2024/01/29 04:02:11;;;;;;;29.23;27.83;;;;;;;1.76;100.00;102406.41;4956435;28;20462;-42
2024/01/29 04:04:39;;;;;;;30.70;29.33;;;;;;;1.74;100.00;102401.25;4956631;28;20455;-42
2024/01/29 04:07:08;;;;;;;29.93;28.60;;;;;;;1.72;100.00;102397.88;4956385;28;20539;-42
2024/01/29 04:09:36;;;;;;;30.70;28.87;;;;;;;1.70;100.00;102397.16;4956071;28;20466;-44
2024/01/29 04:12:05;;;;;;;31.23;29.73;;;;;;;1.71;100.00;102393.56;4956536;28;20525;-41
2024/01/29 04:14:32;;;;;;;29.33;28.13;;;;;;;1.68;100.00;102391.97;4948972;29;20455;-44
2024/01/29 04:17:04;;;;;;;30.53;29.13;;;;;;;1.66;100.00;102387.75;4958408;28;20444;-42
2024/01/29 04:19:32;;;;;;;31.57;30.23;;;;;;;1.64;100.00;102387.03;4957149;28;20471;-42
2024/01/29 04:22:00;;;;;;;30.47;29.10;;;;;;;1.63;100.00;102383.53;4957531;28;20444;-42
2024/01/29 04:24:29;;;;;;;31.03;29.63;;;;;;;1.62;100.00;102375.75;4956744;28;20465;-45
2024/01/29 04:26:57;;;;;;;29.63;28.13;;;;;;;1.62;100.00;102388.88;4957313;28;20445;-42
2024/01/29 04:29:25;;;;;;;31.40;29.93;;;;;;;1.61;100.00;102381.97;4957049;28;20487;-45
2024/01/29 04:31:53;;;;;;;32.00;30.50;;;;;;;1.61;100.00;102380.16;4957229;28;20435;-44
2024/01/29 04:34:21;;;;;;;30.40;28.97;;;;;;;1.59;100.00;102375.94;4957278;28;20546;-41
2024/01/29 04:36:49;;;;;;;31.53;29.50;;;;;;;1.58;100.00;102380.34;4957416;28;20796;-43
2024/01/29 04:39:17;;;;;;;31.00;29.57;;;;;;;1.59;100.00;102368.91;4956902;28;20467;-44
2024/01/29 04:41:46;;;;;;;29.13;27.93;;;;;;;1.59;100.00;102362.78;4957935;28;20439;-46
2024/01/29 04:44:14;;;;;;;30.50;29.00;;;;;;;1.58;100.00;102369.00;4957036;28;20797;-45
2024/01/29 04:46:42;;;;;;;30.63;29.37;;;;;;;1.57;100.00;102369.94;4958204;28;21011;-43
2024/01/29 04:49:10;;;;;;;30.50;29.10;;;;;;;1.56;100.00;102369.09;4956940;28;20463;-43
2024/01/29 04:51:40;;;;;;;30.70;28.80;;;;;;;1.56;100.00;102366.47;4957147;28;20439;-45
2024/01/29 04:54:08;;;;;;;31.77;30.27;;;;;;;1.57;100.00;102362.91;4953257;28;20460;-42
2024/01/29 04:56:37;;;;;;;28.73;27.43;;;;;;;1.60;100.00;102362.72;4957550;28;21202;-41
2024/01/29 04:59:06;;;;;;;30.43;28.73;;;;;;;1.61;100.00;102360.94;4958513;28;20473;-42
2024/01/29 05:01:34;;;;;;;30.10;28.60;;;;;;;1.64;100.00;102352.84;4951183;29;20828;-44
2024/01/29 05:04:02;;;;;;;29.60;28.20;;;;;;;1.68;100.00;102354.31;4957306;28;20459;-41
2024/01/29 05:06:30;;;;;;;29.60;28.20;;;;;;;1.68;100.00;102346.41;4954365;28;20432;-44
2024/01/29 05:08:58;;;;;;;29.00;27.60;;;;;;;1.70;100.00;102355.06;4954081;28;20467;-41
2024/01/29 05:11:26;;;;;;;29.57;28.17;;;;;;;1.69;100.00;102350.75;4955254;28;20456;-43
2024/01/29 05:13:54;;;;;;;30.43;28.90;;;;;;;1.70;100.00;102355.06;4953999;28;20511;-42
2024/01/29 05:16:23;;;;;;;29.20;28.00;;;;;;;1.70;100.00;102346.31;4954317;28;20459;-43
2024/01/29 05:18:51;;;;;;;28.90;27.60;;;;;;;1.71;100.00;102346.22;4954712;28;20432;-42
2024/01/29 05:21:19;;;;;;;30.30;28.60;;;;;;;1.72;100.00;102353.16;4954307;28;20483;-42
2024/01/29 05:23:47;;;;;;;28.63;27.13;;;;;;;1.72;100.00;102361.06;4953873;28;20459;-45
2024/01/29 05:26:14;;;;;;;28.20;26.90;;;;;;;1.74;100.00;102353.91;4955330;28;20888;-47
2024/01/29 05:28:42;;;;;;;27.50;26.13;;;;;;;1.75;100.00;102350.34;4953897;28;20444;-43
2024/01/29 05:31:11;;;;;;;26.37;25.27;;;;;;;1.76;100.00;102361.72;4954743;28;20468;-42
2024/01/29 05:33:40;;;;;;;27.03;25.67;;;;;;;1.77;100.00;102368.63;4954545;28;20432;-45
2024/01/29 05:36:08;;;;;;;26.33;25.00;;;;;;;1.79;100.00;102364.13;4954866;28;20440;-44
2024/01/29 05:38:36;;;;;;;27.47;26.17;;;;;;;1.81;100.00;102360.47;4953824;28;20432;-44
2024/01/29 05:41:04;;;;;;;27.60;25.90;;;;;;;1.85;100.00;102361.09;4955491;28;20480;-44
2024/01/29 05:43:32;;;;;;;25.87;24.73;;;;;;;1.89;100.00;102362.56;4952988;28;20490;-45
2024/01/29 05:46:00;;;;;;;26.07;24.80;;;;;;;1.91;100.00;102353.63;4954118;28;20475;-42
2024/01/29 05:48:28;;;;;;;26.77;25.30;;;;;;;1.92;100.00;102359.75;4953785;28;20784;-42
2024/01/29 05:50:57;;;;;;;25.80;24.73;;;;;;;1.93;100.00;102353.53;4953909;28;20458;-46
2024/01/29 05:53:25;;;;;;;26.20;25.00;;;;;;;1.95;100.00;102343.75;4954085;28;20491;-45
2024/01/29 05:55:53;;;;;;;25.77;24.57;;;;;;;1.96;100.00;102353.34;4949020;28;20473;-45
2024/01/29 05:58:21;;;;;;;26.70;25.50;;;;;;;1.97;100.00;102347.16;4954452;28;20487;-44
2024/01/29 06:00:48;;;;;;;26.43;25.33;;;;;;;1.99;100.00;102350.50;4953810;28;20592;-43
2024/01/29 06:03:19;;;;;;;26.93;25.70;;;;;;;1.98;100.00;102347.03;4954719;28;20439;-42
2024/01/29 06:05:47;;;;;;;28.47;27.10;;;;;;;2.00;100.00;102345.13;4953720;28;20459;-42
2024/01/29 06:08:16;;;;;;;26.27;25.03;;;;;;;2.02;100.00;102342.41;4953574;28;20480;-42
2024/01/29 06:10:44;;;;;;;25.30;24.20;;;;;;;2.05;100.00;102350.09;4952423;28;20466;-44
2024/01/29 06:13:13;;;;;;;28.20;26.80;;;;;;;2.06;100.00;102338.63;4953627;28;20439;-42
2024/01/29 06:15:41;;;;;;;27.57;26.07;;;;;;;2.08;100.00;102329.69;4954484;28;20452;-41
2024/01/29 06:18:09;;;;;;;26.50;25.20;;;;;;;2.09;100.00;102336.63;4953893;28;20975;-42
2024/01/29 06:20:37;;;;;;;25.50;24.40;;;;;;;2.14;100.00;102331.91;4945565;28;20459;-42
2024/01/29 06:23:06;;;;;;;24.30;23.30;;;;;;;2.18;100.00;102335.19;4955059;28;20436;-41
2024/01/29 06:25:35;;;;;;;26.43;25.13;;;;;;;2.22;100.00;102341.91;4955354;28;20488;-43
2024/01/29 06:28:03;;;;;;;25.40;24.03;;;;;;;2.24;100.00;102343.47;4954583;28;20757;-42
2024/01/29 06:30:33;;;;;;;24.60;23.60;;;;;;;2.28;100.00;102346.75;4953474;28;20546;-43
2024/01/29 06:33:01;;;;;;;24.60;23.50;;;;;;;2.30;100.00;102339.59;4954066;28;21123;-43
2024/01/29 06:35:29;;;;;;;24.53;23.47;;;;;;;2.32;100.00;102347.38;4953884;28;20461;-46
2024/01/29 06:37:56;;;;;;;25.57;24.47;;;;;;;2.32;100.00;102335.06;4954585;28;20440;-45
2024/01/29 06:40:27;;;;;;;23.90;22.93;;;;;;;2.32;100.00;102344.75;4954348;28;20478;-44
2024/01/29 06:42:57;;;;;;;23.37;22.30;;;;;;;2.32;100.00;102357.91;4953713;28;20440;-46
2024/01/29 06:45:25;;;;;;;22.90;21.80;;;;;;;2.33;100.00;102349.91;4953306;28;20506;-43
2024/01/29 06:47:53;;;;;;;24.70;23.60;;;;;;;2.31;100.00;102354.44;4953171;28;20475;-43
2024/01/29 06:50:21;;;;;;;23.93;22.83;;;;;;;2.31;100.00;102357.06;4953272;28;20459;-44
2024/01/29 06:52:48;;;;;;;24.40;23.37;;;;;;;2.30;100.00;102363.28;4952624;28;20511;-42
2024/01/29 06:55:17;;;;;;;24.80;23.63;;;;;;;2.29;100.00;102355.50;4953347;28;20971;-43
2024/01/29 06:57:45;;;;;;;24.73;23.37;;;;;;;2.28;100.00;102359.91;4953568;28;20472;-44
2024/01/29 07:00:17;;;;;;;24.70;23.50;;;;;;;2.28;100.00;102366.97;4952684;28;21008;-44
2024/01/29 07:02:45;;;;;;;23.80;22.70;;;;;;;2.27;100.00;102373.19;4945305;29;20440;-44
2024/01/29 07:05:12;;;;;;;25.50;24.40;;;;;;;2.26;100.00;102379.38;4952021;28;20479;-42
2024/01/29 07:07:40;;;;;;;26.63;25.30;;;;;;;2.22;100.00;102382.22;4953098;28;20438;-44
2024/01/29 07:10:09;;;;;;;24.43;23.33;;;;;;;2.22;100.00;102376.97;4952135;28;20575;-41
2024/01/29 07:12:36;;;;;;;25.80;24.70;;;;;;;2.20;100.00;102380.66;4952858;28;20432;-43
2024/01/29 07:15:05;;;;;;;27.10;26.00;;;;;;;2.17;100.00;102383.50;4953168;28;20456;-47
2024/01/29 07:17:35;;;;;;;26.47;25.33;;;;;;;2.14;100.00;102392.44;4953148;28;20527;-42
2024/01/29 07:20:03;;;;;;;25.77;24.57;;;;;;;2.13;100.00;102387.25;4952307;28;20466;-44
2024/01/29 07:22:37;;;;;;;26.27;25.07;;;;;;;2.12;100.00;102390.84;4952543;28;20502;-42
2024/01/29 07:25:06;;;;;;;27.90;26.50;;;;;;;2.12;100.00;102396.94;4953166;28;20455;-44
2024/01/29 07:27:34;;;;;;;28.30;26.97;;;;;;;2.13;100.00;102403.91;4953190;28;20501;-44
2024/01/29 07:30:02;;;;;;;28.03;26.63;;;;;;;2.14;100.00;102402.13;4952205;28;20548;-47
2024/01/29 07:32:32;;;;;;;27.47;26.17;;;;;;;2.16;100.00;102403.69;4953344;28;20527;-46
2024/01/29 07:35:02;;;;;;;26.80;25.50;;;;;;;2.19;100.00;102408.75;4953239;28;20494;-42
2024/01/29 07:37:31;;;;;;;28.17;26.87;;;;;;;2.23;100.00;102404.97;4952788;28;20577;-41
2024/01/29 07:39:59;;;;;;;26.27;25.07;;;;;;;2.29;100.00;102408.16;4952482;28;20530;-42
2024/01/29 07:42:27;;;;;;;26.27;25.00;;;;;;;2.34;100.00;102409.50;4952177;28;20503;-42
2024/01/29 07:44:55;;;;;;;26.60;25.30;;;;;;;2.39;100.00;102403.97;4952425;28;20463;-45
2024/01/29 07:47:23;;;;;;;24.90;23.87;;;;;;;2.45;100.00;102399.09;4953923;28;20478;-42
2024/01/29 07:49:51;;;;;;;26.83;25.40;;;;;;;2.53;100.00;102398.59;4952541;28;20468;-42
2024/01/29 07:52:21;;;;;;;27.00;25.53;;;;;;;2.60;100.00;102400.69;4952819;28;20427;-41
2024/01/29 07:54:49;;;;;;;25.87;24.80;;;;;;;2.67;100.00;102411.66;4948533;28;20586;-42
2024/01/29 07:57:17;;;;;;;25.33;23.97;;;;;;;2.73;100.00;102406.81;4953109;29;20443;-43
2024/01/29 07:59:45;;;;;;;26.03;24.83;;;;;;;2.81;100.00;102411.53;4952641;28;20575;-41
2024/01/29 08:02:13;;;;;;;24.60;23.50;;;;;;;2.89;100.00;102413.66;4952730;28;20476;-42
2024/01/29 08:04:41;;;;;;;24.57;23.47;;;;;;;2.94;100.00;102408.91;4952272;28;20456;-42
2024/01/29 08:07:10;;;;;;;22.83;21.83;;;;;;;3.02;100.00;102415.31;4952316;28;20444;-41
2024/01/29 08:09:39;;;;;;;22.53;21.13;;;;;;;3.09;100.00;102427.13;4952009;28;20838;-43
2024/01/29 08:12:07;;;;;;;21.47;20.53;;;;;;;3.18;100.00;102430.91;4951389;28;20900;-44
2024/01/29 08:14:36;;;;;;;24.17;22.90;;;;;;;3.28;100.00;102432.81;4951687;28;20460;-43
2024/01/29 08:17:04;;;;;;;24.70;23.40;;;;;;;3.37;100.00;102422.56;4952597;28;20495;-43
2024/01/29 08:19:32;;;;;;;23.60;22.60;;;;;;;3.42;100.00;102410.72;4951925;28;20899;-45
2024/01/29 08:22:00;;;;;;;24.17;22.77;;;;;;;3.46;100.00;102414.84;4952224;28;20986;-42
2024/01/29 08:24:28;;;;;;;22.87;21.97;;;;;;;3.51;100.00;102428.53;4951721;28;20471;-46
2024/01/29 08:26:58;;;;;;;21.30;20.37;;;;;;;3.56;100.00;102434.31;4953289;28;20447;-46
2024/01/29 08:29:26;;;;;;;22.10;21.20;;;;;;;3.63;100.00;102429.44;4952580;28;20554;-43
2024/01/29 08:31:54;;;;;;;22.33;20.80;;;;;;;3.71;100.00;102413.88;4952852;28;20435;-46
2024/01/29 08:34:24;;;;;;;22.10;20.90;;;;;;;3.75;100.00;102404.81;4952164;28;20951;-44
2024/01/29 08:36:51;;;;;;;22.37;21.30;;;;;;;3.82;100.00;102395.50;4951230;28;20490;-43
2024/01/29 08:39:21;;;;;;;21.47;20.50;;;;;;;3.87;100.00;102412.66;4951101;28;20466;-42
2024/01/29 08:41:49;;;;;;;24.00;22.90;;;;;;;3.93;100.00;102437.75;4947412;29;20541;-44
2024/01/29 08:44:20;;;;;;;23.57;22.37;;;;;;;4.02;100.00;102445.00;4956912;28;20474;-44
2024/01/29 08:46:48;;;;;;;21.80;20.80;;;;;;;4.10;100.00;102424.16;4949036;29;20439;-42
2024/01/29 08:49:16;;;;;;;22.57;21.40;;;;;;;4.15;100.00;102402.72;4954767;28;20821;-42
2024/01/29 08:51:44;;;;;;;22.73;21.40;;;;;;;4.18;100.00;102394.56;4954897;28;20471;-43
2024/01/29 08:54:12;;;;;;;22.33;21.13;;;;;;;4.23;100.00;102400.31;4951089;28;20523;-48
2024/01/29 08:56:41;;;;;;;21.13;20.17;;;;;;;4.28;100.00;102416.66;4954174;29;20855;-44
2024/01/29 08:59:09;;;;;;;20.47;19.57;;;;;;;4.32;100.00;102411.03;4954214;28;21011;-47
2024/01/29 09:01:38;;;;;;;21.37;20.47;;;;;;;4.35;100.00;102415.25;4954443;28;20494;-44
2024/01/29 09:04:06;;;;;;;20.57;19.67;;;;;;;4.37;100.00;102422.09;4955070;28;20451;-45
2024/01/29 09:06:34;;;;;;;22.20;21.07;;;;;;;4.38;100.00;102415.88;4954662;28;20455;-46
2024/01/29 09:09:02;;;;;;;22.00;21.00;;;;;;;4.37;100.00;102408.03;4953982;28;20466;-47
2024/01/29 09:11:30;;;;;;;22.27;21.30;;;;;;;4.39;100.00;102406.16;4956280;28;20440;-45
2024/01/29 09:13:58;;;;;;;21.90;20.90;;;;;;;4.38;100.00;102413.22;4955155;28;20432;-46
2024/01/29 09:16:26;;;;;;;22.37;21.37;;;;;;;4.40;100.00;102428.94;4955039;28;20467;-45
2024/01/29 09:18:55;;;;;;;22.57;21.57;;;;;;;4.45;100.00;102437.34;4954782;28;20523;-44
2024/01/29 09:21:23;;;;;;;24.73;23.10;;;;;;;4.51;100.00;102439.53;4955100;28;20444;-42
2024/01/29 09:23:51;;;;;;;22.77;21.77;;;;;;;4.56;100.00;102437.41;4954860;28;20834;-44
2024/01/29 09:26:19;;;;;;;22.77;21.53;;;;;;;4.66;100.00;102437.56;4954616;28;20882;-43
2024/01/29 09:28:47;;;;;;;24.17;22.13;;;;;;;4.71;100.00;102444.16;4953278;28;20781;-43
2024/01/29 09:31:14;;;;;;;22.83;21.67;;;;;;;4.78;100.00;102441.91;4955691;28;20452;-45
2024/01/29 09:33:44;;;;;;;22.10;21.17;;;;;;;4.89;100.00;102460.41;4954285;28;20531;-44
2024/01/29 09:36:13;;;;;;;22.47;21.17;;;;;;;5.02;100.00;102467.25;4954835;28;20432;-46
2024/01/29 09:38:41;;;;;;;22.27;21.23;;;;;;;5.15;100.00;102458.38;4954610;28;20507;-43
2024/01/29 09:41:09;;;;;;;22.10;21.20;;;;;;;5.30;100.00;102454.53;4954071;28;20439;-44
2024/01/29 09:43:40;;;;;;;23.17;21.77;;;;;;;5.42;100.00;102457.06;4954183;28;20907;-43
2024/01/29 09:46:08;;;;;;;23.30;22.00;;;;;;;5.54;100.00;102440.22;4954552;28;20950;-45
2024/01/29 09:48:38;;;;;;;22.13;21.00;;;;;;;5.68;100.00;102447.03;4954028;28;20428;-50
2024/01/29 09:51:07;;;;;;;22.17;21.07;;;;;;;5.83;100.00;102451.09;4953205;28;20532;-44
2024/01/29 09:53:37;;;;;;;22.00;20.93;;;;;;;5.96;100.00;102449.16;4953052;28;20448;-45
2024/01/29 09:56:06;;;;;;;21.70;20.63;;;;;;;6.11;100.00;102447.91;4948990;29;20972;-41
2024/01/29 09:58:33;;;;;;;21.70;20.50;;;;;;;6.22;100.00;102441.72;4953056;28;20476;-44
2024/01/29 10:01:08;;;;;;;21.77;20.67;;;;;;;6.34;100.00;102446.00;4955243;28;20527;-44
2024/01/29 10:03:39;;;;;;;22.70;21.30;;;;;;;6.46;100.00;102449.44;4954023;28;20998;-46
2024/01/29 10:06:07;;;;;;;21.80;20.80;;;;;;;6.54;100.00;102449.66;4954291;28;20859;-44
2024/01/29 10:08:37;;;;;;;21.97;20.67;;;;;;;6.62;100.00;102455.97;4953013;28;20935;-42
2024/01/29 10:11:06;;;;;;;22.80;21.60;;;;;;;6.68;100.00;102466.06;4953447;28;20451;-46
2024/01/29 10:13:34;;;;;;;24.23;22.80;;;;;;;6.76;100.00;102456.59;4953117;28;20442;-45
2024/01/29 10:16:02;;;;;;;21.50;20.50;;;;;;;6.86;100.00;102452.22;4953882;28;20479;-42
2024/01/29 10:18:30;;;;;;;22.13;21.03;;;;;;;6.93;100.00;102450.72;4987592;23;20482;-34
2024/01/29 10:21:01;;;;;;;21.43;20.40;;;;;;;6.95;100.00;102464.69;4954547;28;20464;-34
2024/01/29 10:23:31;;;;;;;20.90;19.90;;;;;;;7.07;100.00;102472.44;4954351;28;20608;-34
2024/01/29 10:26:01;;;;;;;20.60;19.70;;;;;;;7.20;100.00;102462.44;4959762;28;20522;-34
2024/01/29 10:28:28;;;;;;;21.20;20.00;;;;;;;7.30;100.00;102459.81;4964858;28;20527;-34
2024/01/29 10:30:58;;;;;;;21.13;19.97;;;;;;;7.41;100.00;102456.22;4962057;28;20909;-34
2024/01/29 10:33:26;;;;;;;21.90;20.50;;;;;;;7.52;100.00;102464.97;4960945;28;20542;-35
2024/01/29 10:35:58;;;;;;;20.27;19.23;;;;;;;7.74;100.00;102467.38;4954526;28;21119;-38
2024/01/29 10:38:29;;;;;;;21.20;20.20;;;;;;;7.84;100.00;102461.25;4953868;28;20468;-34
2024/01/29 10:41:00;;;;;;;20.33;19.43;;;;;;;7.98;100.00;102480.28;4953813;28;20998;-34
2024/01/29 10:43:36;;;;;;;21.37;20.17;;;;;;;8.15;100.00;102478.78;4961941;28;20899;-35
2024/01/29 10:46:08;;;;;;;20.00;19.10;;;;;;;8.32;100.00;102470.13;4947765;28;20443;-35
2024/01/29 10:48:38;;;;;;;21.40;19.97;;;;;;;8.43;100.00;102474.47;4953437;28;20491;-34
2024/01/29 10:51:07;;;;;;;21.10;20.10;;;;;;;8.56;100.00;102467.03;4954192;28;20900;-35
2024/01/29 10:53:36;;;;;;;20.27;19.27;;;;;;;8.66;100.00;102476.69;4960206;28;21136;-34
2024/01/29 10:56:07;;;;;;;21.13;20.13;;;;;;;8.76;100.00;102485.50;4960529;28;20808;-34
2024/01/29 10:58:36;;;;;;;21.93;20.53;;;;;;;8.74;100.00;102482.16;4958541;28;20519;-35
2024/01/29 11:01:05;;;;;;;20.20;19.30;;;;;;;8.76;100.00;102474.84;4964784;28;20455;-34
2024/01/29 11:03:36;;;;;;;21.00;19.90;;;;;;;8.76;100.00;102488.16;4952435;28;20483;-34
2024/01/29 11:06:09;;;;;;;22.23;21.13;;;;;;;8.83;100.00;102485.78;4973092;28;20551;-34
2024/01/29 11:08:41;;;;;;;20.83;19.53;;;;;;;8.90;100.00;102478.88;4956101;28;20459;-35
2024/01/29 11:11:12;;;;;;;20.70;19.80;;;;;;;9.02;100.00;102477.72;4972789;28;20522;-34
2024/01/29 11:13:40;;;;;;;21.80;20.70;;;;;;;9.14;100.00;102486.41;4972573;28;20442;-34
2024/01/29 11:16:08;;;;;;;20.80;19.60;;;;;;;9.22;100.00;102482.03;4971960;28;20919;-35